createdAt,value
2022-11-25T00:00:01.071Z,0.93
2022-11-25T00:02:41.530Z,1.15
2022-11-25T00:05:15.554Z,1.00
2022-11-25T00:07:48.812Z,1.17
2022-11-25T00:10:22.075Z,1.20
2022-11-25T00:12:55.281Z,1.00
2022-11-25T00:15:28.746Z,1.30
2022-11-25T00:18:03.180Z,1.20
2022-11-25T00:20:38.632Z,1.17
2022-11-25T00:23:11.674Z,1.10
2022-11-25T00:25:44.714Z,1.20
2022-11-25T00:28:18.863Z,1.15
2022-11-25T00:30:51.956Z,1.17
2022-11-25T00:33:26.294Z,1.60
2022-11-25T00:36:02.282Z,1.38
2022-11-25T00:38:35.485Z,1.25
2022-11-25T00:41:31.017Z,1.50
2022-11-25T00:44:21.833Z,1.05
2022-11-25T00:46:54.817Z,1.30
2022-11-25T00:49:30.154Z,1.40
2022-11-25T00:52:03.221Z,0.93
2022-11-25T00:54:36.686Z,1.33
2022-11-25T00:57:09.883Z,1.38
2022-11-25T00:59:43.154Z,1.20
2022-11-25T01:02:17.826Z,1.00
2022-11-25T01:04:52.123Z,0.90
2022-11-25T01:07:28.230Z,0.90
2022-11-25T01:10:01.570Z,0.80
2022-11-25T01:12:34.577Z,1.10
2022-11-25T01:15:09.227Z,0.90
2022-11-25T01:17:42.429Z,0.90
2022-11-25T01:20:18.887Z,0.73
2022-11-25T01:22:54.218Z,0.80
2022-11-25T01:25:27.278Z,0.80
2022-11-25T01:28:00.157Z,0.82
2022-11-25T01:30:37.027Z,1.35
2022-11-25T01:33:13.739Z,1.05
2022-11-25T01:35:48.025Z,0.63
2022-11-25T01:38:20.957Z,1.38
2022-11-25T01:40:53.907Z,0.90
2022-11-25T01:43:28.056Z,0.50
2022-11-25T01:46:08.454Z,0.73
2022-11-25T01:48:46.509Z,0.90
2022-11-25T01:51:27.690Z,0.80
2022-11-25T01:54:05.530Z,0.70
2022-11-25T01:56:45.091Z,0.65
2022-11-25T01:59:18.614Z,0.77
2022-11-25T02:01:52.772Z,0.70
2022-11-25T02:04:29.359Z,0.70
2022-11-25T02:07:08.879Z,0.60
2022-11-25T02:09:45.106Z,0.50
2022-11-25T02:12:19.864Z,0.60
2022-11-25T02:14:55.565Z,0.43
2022-11-25T02:17:29.713Z,0.90
2022-11-25T02:20:06.010Z,0.50
2022-11-25T02:22:53.871Z,0.40
2022-11-25T02:25:31.062Z,0.57
2022-11-25T02:28:08.204Z,0.57
2022-11-25T02:30:42.697Z,0.50
2022-11-25T02:33:16.764Z,0.50
2022-11-25T02:35:53.602Z,0.60
2022-11-25T02:38:37.620Z,0.88
2022-11-25T02:41:15.787Z,0.70
2022-11-25T02:43:48.899Z,0.50
2022-11-25T02:46:24.714Z,0.43
2022-11-25T02:49:15.287Z,0.45
2022-11-25T02:51:48.567Z,0.73
2022-11-25T02:54:21.537Z,0.50
2022-11-25T02:56:56.100Z,0.40
2022-11-25T02:59:29.172Z,0.80
2022-11-25T03:02:02.697Z,0.63
2022-11-25T03:04:36.692Z,0.63
2022-11-25T03:07:10.249Z,0.50
2022-11-25T03:09:43.764Z,0.50
2022-11-25T03:12:20.887Z,0.32
2022-11-25T03:14:53.832Z,0.50
2022-11-25T03:17:27.404Z,0.68
2022-11-25T03:20:00.620Z,0.40
2022-11-25T03:22:33.712Z,0.70
2022-11-25T03:25:07.826Z,0.40
2022-11-25T03:27:43.210Z,0.45
2022-11-25T03:30:18.926Z,0.60
2022-11-25T03:32:51.961Z,0.63
2022-11-25T03:35:25.218Z,0.70
2022-11-25T03:37:58.330Z,0.50
2022-11-25T03:40:31.795Z,0.57
2022-11-25T03:43:06.383Z,0.50
2022-11-25T03:45:39.461Z,0.70
2022-11-25T03:48:12.395Z,0.60
2022-11-25T03:50:45.333Z,0.60
2022-11-25T03:53:18.669Z,0.55
2022-11-25T03:55:52.337Z,0.70
2022-11-25T03:58:27.050Z,0.70
2022-11-25T04:01:02.404Z,0.75
2022-11-25T04:03:35.541Z,0.70
2022-11-25T04:06:09.155Z,0.60
2022-11-25T04:08:42.922Z,0.75
2022-11-25T04:11:16.111Z,0.82
2022-11-25T04:13:49.320Z,0.50
2022-11-25T04:16:26.340Z,0.77
2022-11-25T04:18:59.511Z,0.50
2022-11-25T04:21:32.463Z,0.60
2022-11-25T04:24:06.307Z,0.57
2022-11-25T04:26:39.269Z,0.60
2022-11-25T04:29:13.671Z,0.82
2022-11-25T04:31:47.018Z,0.75
2022-11-25T04:34:20.312Z,0.55
2022-11-25T04:36:53.398Z,0.60
2022-11-25T04:39:26.460Z,0.73
2022-11-25T04:42:13.293Z,0.65
2022-11-25T04:45:07.271Z,0.75
2022-11-25T04:47:41.147Z,0.63
2022-11-25T04:50:16.576Z,0.60
2022-11-25T04:52:50.043Z,0.88
2022-11-25T04:55:22.999Z,0.43
2022-11-25T04:57:56.339Z,0.43
2022-11-25T05:00:30.595Z,0.43
2022-11-25T05:03:03.551Z,0.60
2022-11-25T05:05:39.732Z,0.68
2022-11-25T05:08:12.951Z,0.45
2022-11-25T05:10:46.007Z,0.50
2022-11-25T05:13:19.050Z,0.70
2022-11-25T05:15:53.625Z,0.60
2022-11-25T05:18:27.267Z,0.60
2022-11-25T05:21:02.573Z,0.50
2022-11-25T05:23:35.501Z,0.63
2022-11-25T05:26:08.784Z,0.60
2022-11-25T05:28:42.028Z,0.63
2022-11-25T05:31:16.498Z,0.80
2022-11-25T05:33:50.051Z,0.50
2022-11-25T05:36:23.335Z,0.60
2022-11-25T05:38:57.667Z,0.77
2022-11-25T05:41:31.206Z,0.60
2022-11-25T05:44:05.594Z,0.85
2022-11-25T05:46:39.914Z,1.00
2022-11-25T05:49:12.835Z,0.60
2022-11-25T05:51:46.383Z,0.63
2022-11-25T05:54:19.579Z,0.85
2022-11-25T05:56:52.518Z,0.80
2022-11-25T05:59:25.890Z,0.90
2022-11-25T06:02:00.405Z,0.90
2022-11-25T06:04:33.494Z,0.82
2022-11-25T06:07:07.588Z,1.20
2022-11-25T06:09:42.000Z,1.00
2022-11-25T06:12:15.181Z,0.93
2022-11-25T06:14:48.373Z,0.90
2022-11-25T06:17:22.714Z,0.90
2022-11-25T06:19:56.675Z,0.77
2022-11-25T06:22:29.968Z,0.70
2022-11-25T06:25:04.195Z,0.93
2022-11-25T06:28:04.603Z,0.90
2022-11-25T06:30:32.328Z,1.10
2022-11-25T06:33:06.653Z,1.10
2022-11-25T06:35:39.654Z,0.80
2022-11-25T06:38:13.327Z,0.88
2022-11-25T06:40:47.690Z,1.00
2022-11-25T06:43:20.930Z,1.02
2022-11-25T06:45:53.848Z,0.88
2022-11-25T06:48:29.221Z,1.40
2022-11-25T06:51:03.916Z,1.10
2022-11-25T06:53:36.852Z,0.80
2022-11-25T06:56:12.361Z,0.70
2022-11-25T06:58:46.895Z,0.90
2022-11-25T07:01:21.826Z,0.93
2022-11-25T07:03:58.119Z,1.15
2022-11-25T07:06:32.317Z,1.10
2022-11-25T07:09:07.073Z,0.90
2022-11-25T07:11:42.005Z,1.40
2022-11-25T07:14:16.859Z,1.20
2022-11-25T07:16:49.973Z,1.13
2022-11-25T07:19:24.477Z,1.65
2022-11-25T07:21:57.489Z,1.45
2022-11-25T07:24:30.918Z,1.67
2022-11-25T07:27:06.044Z,1.40
2022-11-25T07:32:35.302Z,1.40
2022-11-25T07:35:10.414Z,1.13
2022-11-25T07:37:43.816Z,0.80
2022-11-25T07:40:17.744Z,1.00
2022-11-25T07:42:50.986Z,1.10
2022-11-25T07:45:24.496Z,1.27
2022-11-25T07:47:57.874Z,1.20
2022-11-25T07:50:33.271Z,1.10
2022-11-25T07:53:06.260Z,1.08
2022-11-25T07:55:39.373Z,1.00
2022-11-25T07:58:12.441Z,1.00
2022-11-25T08:00:45.417Z,1.10
2022-11-25T08:03:18.620Z,0.93
2022-11-25T08:05:53.316Z,1.02
2022-11-25T08:08:26.650Z,1.20
2022-11-25T08:10:59.975Z,1.27
2022-11-25T08:13:33.890Z,1.30
2022-11-25T08:16:08.485Z,1.05
2022-11-25T08:18:42.348Z,0.90
2022-11-25T08:21:18.382Z,0.98
2022-11-25T08:23:52.962Z,1.60
2022-11-25T08:26:27.877Z,1.15
2022-11-25T08:29:01.954Z,1.10
2022-11-25T08:31:44.432Z,0.82
2022-11-25T08:34:21.012Z,0.70
2022-11-25T08:36:55.538Z,0.90
2022-11-25T08:39:51.043Z,1.00
2022-11-25T08:42:22.190Z,1.00
2022-11-25T08:44:56.205Z,0.90
2022-11-25T08:47:29.357Z,1.33
2022-11-25T08:50:02.415Z,1.00
2022-11-25T08:52:36.891Z,1.10
2022-11-25T08:55:10.778Z,0.77
2022-11-25T08:57:43.960Z,1.13
2022-11-25T09:00:18.015Z,0.98
2022-11-25T09:02:51.224Z,1.10
2022-11-25T09:05:24.462Z,1.05
2022-11-25T09:07:58.992Z,1.05
2022-11-25T09:10:33.347Z,1.13
2022-11-25T09:13:06.880Z,1.33
2022-11-25T09:15:40.591Z,1.10
2022-11-25T09:18:14.347Z,1.02
2022-11-25T09:20:48.130Z,1.27
2022-11-25T09:23:23.320Z,1.40
2022-11-25T09:25:57.987Z,1.15
2022-11-25T09:28:31.310Z,1.40
2022-11-25T09:31:08.904Z,1.40
2022-11-25T09:33:41.872Z,1.40
2022-11-25T09:36:16.347Z,1.40
2022-11-25T09:38:51.585Z,1.00
2022-11-25T09:42:00.728Z,1.60
2022-11-25T09:45:06.516Z,1.30
2022-11-25T09:47:51.651Z,1.10
2022-11-25T09:50:41.468Z,1.40
2022-11-25T09:53:28.043Z,1.45
2022-11-25T09:56:05.149Z,1.45
2022-11-25T09:58:43.530Z,1.65
2022-11-25T10:01:20.180Z,1.50
2022-11-25T10:03:56.393Z,1.23
2022-11-25T10:06:32.401Z,1.40
2022-11-25T10:09:14.053Z,1.38
2022-11-25T10:11:52.785Z,1.55
2022-11-25T10:14:32.405Z,1.58
2022-11-25T10:17:12.407Z,1.48
2022-11-25T10:19:54.312Z,1.60
2022-11-25T10:25:07.603Z,1.40
2022-11-25T10:27:46.248Z,1.48
2022-11-25T10:30:22.908Z,1.42
2022-11-25T10:33:04.988Z,1.30
2022-11-25T10:35:42.866Z,1.45
2022-11-25T10:38:24.331Z,1.52
2022-11-25T10:40:57.998Z,1.50
2022-11-25T10:43:33.682Z,1.50
2022-11-25T10:46:11.895Z,1.88
2022-11-25T10:49:00.049Z,1.67
2022-11-25T10:51:44.956Z,1.48
2022-11-25T10:54:27.301Z,1.02
2022-11-25T10:57:02.867Z,1.27
2022-11-25T10:59:39.825Z,1.15
2022-11-25T11:02:21.473Z,1.30
2022-11-25T11:04:58.124Z,1.05
2022-11-25T11:07:34.705Z,0.95
2022-11-25T11:10:18.414Z,1.30
2022-11-25T11:12:59.955Z,1.10
2022-11-25T11:15:46.079Z,1.17
2022-11-25T11:18:28.594Z,1.20
2022-11-25T11:21:02.413Z,0.98
2022-11-25T11:23:51.084Z,1.30
2022-11-25T11:26:26.757Z,1.00
2022-11-25T11:29:13.960Z,0.98
2022-11-25T11:31:56.340Z,0.90
2022-11-25T11:34:56.044Z,1.05
2022-11-25T11:37:40.110Z,0.90
2022-11-25T11:40:43.277Z,1.40
2022-11-25T11:43:37.867Z,1.02
2022-11-25T11:46:35.342Z,1.17
2022-11-25T11:49:30.595Z,1.30
2022-11-25T11:52:12.529Z,1.05
2022-11-25T11:54:47.738Z,1.25
2022-11-25T11:57:33.880Z,1.17
2022-11-25T12:00:12.836Z,1.02
2022-11-25T12:03:00.277Z,1.33
2022-11-25T12:05:38.331Z,1.20
2022-11-25T12:08:19.753Z,1.30
2022-11-25T12:10:56.173Z,1.58
2022-11-25T12:13:37.248Z,1.40
2022-11-25T12:16:14.290Z,1.35
2022-11-25T12:18:54.480Z,1.33
2022-11-25T12:21:42.417Z,1.27
2022-11-25T12:24:22.889Z,1.17
2022-11-25T12:27:02.447Z,1.20
2022-11-25T12:29:41.491Z,1.27
2022-11-25T12:32:37.986Z,1.13
2022-11-25T12:35:21.772Z,1.20
2022-11-25T12:38:04.129Z,1.20
2022-11-25T12:40:43.992Z,1.33
2022-11-25T12:43:28.547Z,1.10
2022-11-25T12:46:16.819Z,1.10
2022-11-25T12:48:50.083Z,1.02
2022-11-25T12:51:42.465Z,1.42
2022-11-25T12:54:28.086Z,1.65
2022-11-25T12:57:31.277Z,1.30
2022-11-25T13:03:43.991Z,1.20
2022-11-25T13:06:38.953Z,1.45
2022-11-25T13:09:33.072Z,1.52
2022-11-25T13:12:29.951Z,1.25
2022-11-25T13:15:24.926Z,1.52
2022-11-25T13:18:01.538Z,1.90
2022-11-25T13:20:38.275Z,1.80
2022-11-25T13:23:24.532Z,1.45
2022-11-25T13:26:36.980Z,1.30
2022-11-25T13:30:02.328Z,1.58
2022-11-25T13:32:40.628Z,1.52
2022-11-25T13:35:38.672Z,2.05
2022-11-25T13:38:36.936Z,1.55
2022-11-25T13:41:25.257Z,1.45
2022-11-25T13:44:02.035Z,1.98
2022-11-25T13:46:41.139Z,1.90
2022-11-25T13:49:32.621Z,1.73
2022-11-25T13:52:25.553Z,1.85
2022-11-25T13:54:58.830Z,1.75
2022-11-25T13:57:34.860Z,1.90
2022-11-25T14:00:10.314Z,2.20
2022-11-25T14:02:46.089Z,1.67
2022-11-25T14:05:55.179Z,2.10
2022-11-25T14:08:38.814Z,1.80
2022-11-25T14:11:42.801Z,1.60
2022-11-25T14:14:39.568Z,1.80
2022-11-25T14:17:36.473Z,1.73
2022-11-25T14:20:33.845Z,1.60
2022-11-25T14:23:58.508Z,1.80
2022-11-25T14:26:49.780Z,1.70
2022-11-25T14:29:27.756Z,1.35
2022-11-25T14:32:06.246Z,1.67
2022-11-25T14:34:42.925Z,1.50
2022-11-25T14:37:21.512Z,1.42
2022-11-25T14:40:00.735Z,1.42
2022-11-25T14:42:39.016Z,1.80
2022-11-25T14:45:23.166Z,1.63
2022-11-25T14:47:56.209Z,1.52
2022-11-25T14:50:37.133Z,1.70
2022-11-25T14:53:14.261Z,1.80
2022-11-25T14:55:49.911Z,1.30
2022-11-25T14:58:24.441Z,1.40
2022-11-25T15:01:02.543Z,1.48
2022-11-25T15:03:35.965Z,1.70
2022-11-25T15:06:15.380Z,1.50
2022-11-25T15:09:01.052Z,1.30
2022-11-25T15:11:36.251Z,1.85
2022-11-25T15:14:24.006Z,1.60
2022-11-25T15:16:58.999Z,2.05
2022-11-25T15:19:35.787Z,1.83
2022-11-25T15:22:22.919Z,2.08
2022-11-25T15:25:07.551Z,2.05
2022-11-25T15:27:45.555Z,1.70
2022-11-25T15:30:22.142Z,1.40
2022-11-25T15:32:59.212Z,1.90
2022-11-25T15:35:32.309Z,1.58
2022-11-25T15:38:19.185Z,1.70
2022-11-25T15:40:57.417Z,1.65
2022-11-25T15:43:32.799Z,1.50
2022-11-25T15:46:08.903Z,1.42
2022-11-25T15:48:46.637Z,1.40
2022-11-25T15:51:28.911Z,1.50
2022-11-25T15:54:05.697Z,1.83
2022-11-25T15:56:41.334Z,2.10
2022-11-25T16:00:00.141Z,1.63
2022-11-25T16:02:37.671Z,1.75
2022-11-25T16:05:33.316Z,1.90
2022-11-25T16:08:36.497Z,1.60
2022-11-25T16:11:17.134Z,1.50
2022-11-25T16:13:52.204Z,1.90
2022-11-25T16:16:27.736Z,1.73
2022-11-25T16:19:19.118Z,1.80
2022-11-25T16:21:57.246Z,2.33
2022-11-25T16:24:37.914Z,2.10
2022-11-25T16:27:20.730Z,1.70
2022-11-25T16:29:56.560Z,1.88
2022-11-25T16:32:31.904Z,1.85
2022-11-25T16:38:42.936Z,1.88
2022-11-25T16:41:22.299Z,1.80
2022-11-25T16:43:58.603Z,2.58
2022-11-25T16:46:32.662Z,3.05
2022-11-25T16:49:09.256Z,3.00
2022-11-25T16:51:53.629Z,2.90
2022-11-25T16:54:29.141Z,2.80
2022-11-25T16:57:05.613Z,2.70
2022-11-25T16:59:45.448Z,3.00
2022-11-25T17:02:20.606Z,2.95
2022-11-25T17:04:53.690Z,2.95
2022-11-25T17:07:33.185Z,3.03
2022-11-25T17:10:09.655Z,2.42
2022-11-25T17:12:44.183Z,2.88
2022-11-25T17:15:20.151Z,3.00
2022-11-25T17:17:53.260Z,2.72
2022-11-25T17:20:26.317Z,2.55
2022-11-25T17:23:00.911Z,2.83
2022-11-25T17:25:37.199Z,3.22
2022-11-25T17:28:15.755Z,3.20
2022-11-25T17:30:49.579Z,2.85
2022-11-25T17:33:22.731Z,2.55
2022-11-25T17:35:55.543Z,2.58
2022-11-25T17:38:32.035Z,2.40
2022-11-25T17:41:04.886Z,2.60
2022-11-25T17:43:39.580Z,2.45
2022-11-25T17:46:13.311Z,2.65
2022-11-25T17:48:46.241Z,2.75
2022-11-25T17:51:19.207Z,4.13
2022-11-25T17:53:53.619Z,2.53
2022-11-25T17:56:30.032Z,2.85
2022-11-25T17:59:06.802Z,2.13
2022-11-25T18:01:40.022Z,2.50
2022-11-25T18:04:17.482Z,2.47
2022-11-25T18:06:51.027Z,2.55
2022-11-25T18:09:31.964Z,2.50
2022-11-25T18:12:09.371Z,3.00
2022-11-25T18:14:43.024Z,3.22
2022-11-25T18:17:26.883Z,3.38
2022-11-25T18:20:00.113Z,3.25
2022-11-25T18:22:45.553Z,3.00
2022-11-25T18:25:23.476Z,2.90
2022-11-25T18:27:58.096Z,2.65
2022-11-25T18:30:33.650Z,3.45
2022-11-25T18:33:09.079Z,2.97
2022-11-25T18:35:42.627Z,2.70
2022-11-25T18:38:16.925Z,2.92
2022-11-25T18:40:53.805Z,2.42
2022-11-25T18:43:28.396Z,2.60
2022-11-25T18:46:01.806Z,2.75
2022-11-25T18:48:34.723Z,2.78
2022-11-25T18:51:07.869Z,2.88
2022-11-25T18:53:40.758Z,3.90
2022-11-25T18:56:19.903Z,4.55
2022-11-25T18:58:53.203Z,4.10
2022-11-25T19:01:26.212Z,4.07
2022-11-25T19:04:00.132Z,3.63
2022-11-25T19:06:34.949Z,3.15
2022-11-25T19:09:09.212Z,3.65
2022-11-25T19:11:48.254Z,3.28
2022-11-25T19:14:29.160Z,2.90
2022-11-25T19:17:04.278Z,2.60
2022-11-25T19:22:31.338Z,2.85
2022-11-25T19:25:04.362Z,2.85
2022-11-25T19:27:41.529Z,2.83
2022-11-25T19:30:17.828Z,3.40
2022-11-25T19:32:56.671Z,3.67
2022-11-25T19:35:34.974Z,3.70
2022-11-25T19:38:15.156Z,3.55
2022-11-25T19:40:50.990Z,3.58
2022-11-25T19:43:28.126Z,3.28
2022-11-25T19:46:02.249Z,2.60
2022-11-25T19:48:39.815Z,2.67
2022-11-25T19:51:12.853Z,2.88
2022-11-25T19:53:45.715Z,3.10
2022-11-25T19:56:25.750Z,3.15
2022-11-25T19:59:04.512Z,3.28
2022-11-25T20:01:40.204Z,3.85
2022-11-25T20:04:21.219Z,4.07
2022-11-25T20:06:54.080Z,4.33
2022-11-25T20:09:29.809Z,4.50
2022-11-25T20:12:13.489Z,4.05
2022-11-25T20:14:48.452Z,3.75
2022-11-25T20:17:30.933Z,5.25
2022-11-25T20:20:09.884Z,4.45
2022-11-25T20:23:00.019Z,3.97
2022-11-25T20:25:45.479Z,3.42
2022-11-25T20:28:22.192Z,3.38
2022-11-25T20:30:59.191Z,3.38
2022-11-25T20:33:34.689Z,3.50
2022-11-25T20:36:28.820Z,4.30
2022-11-25T20:39:04.302Z,3.35
2022-11-25T20:41:37.148Z,3.88
2022-11-25T20:44:17.384Z,3.75
2022-11-25T20:46:54.414Z,3.45
2022-11-25T20:49:29.292Z,3.78
2022-11-25T20:52:08.328Z,3.90
2022-11-25T20:54:52.700Z,3.55
2022-11-25T20:57:26.039Z,4.38
2022-11-25T20:59:58.803Z,3.88
2022-11-25T21:02:33.183Z,3.67
2022-11-25T21:05:06.707Z,3.30
2022-11-25T21:07:40.268Z,3.70
2022-11-25T21:10:25.890Z,3.75
2022-11-25T21:12:59.064Z,3.53
2022-11-25T21:15:34.383Z,2.78
2022-11-25T21:18:08.809Z,2.55
2022-11-25T21:20:42.490Z,2.63
2022-11-25T21:23:21.201Z,2.80
2022-11-25T21:25:54.173Z,2.97
2022-11-25T21:28:29.879Z,3.13
2022-11-25T21:31:07.011Z,3.38
2022-11-25T21:33:44.429Z,3.25
2022-11-25T21:36:20.922Z,2.80
2022-11-25T21:39:02.632Z,2.90
2022-11-25T21:41:36.336Z,2.83
2022-11-25T21:44:11.646Z,3.15
2022-11-25T21:46:44.541Z,3.25
2022-11-25T21:49:19.259Z,3.40
2022-11-25T21:51:52.092Z,3.00
2022-11-25T21:54:25.037Z,3.28
2022-11-25T21:56:58.738Z,3.10
2022-11-25T21:59:32.001Z,3.22
2022-11-25T22:02:15.422Z,3.03
2022-11-25T22:04:50.129Z,3.38
2022-11-25T22:07:27.707Z,3.17
2022-11-25T22:10:03.523Z,2.88
2022-11-25T22:12:40.985Z,2.75
2022-11-25T22:15:19.450Z,3.63
2022-11-25T22:17:56.266Z,3.40
2022-11-25T22:20:33.465Z,3.70
2022-11-25T22:23:15.160Z,3.35
2022-11-25T22:25:51.183Z,3.10
2022-11-25T22:28:26.668Z,3.35
2022-11-25T22:31:03.768Z,3.53
2022-11-25T22:33:38.688Z,3.30
2022-11-25T22:36:31.792Z,3.88
2022-11-25T22:39:15.139Z,3.20
2022-11-25T22:41:50.193Z,2.88
2022-11-25T22:44:26.074Z,2.53
2022-11-25T22:46:59.334Z,3.38
2022-11-25T22:49:38.254Z,2.47
2022-11-25T22:52:20.030Z,2.78
2022-11-25T22:54:53.091Z,3.08
2022-11-25T22:57:26.044Z,2.63
2022-11-25T22:59:58.827Z,2.95
2022-11-25T23:02:35.768Z,2.95
2022-11-25T23:05:17.122Z,3.13
2022-11-25T23:07:51.752Z,3.00
2022-11-25T23:10:26.730Z,2.72
2022-11-25T23:12:59.568Z,2.92
2022-11-25T23:15:39.209Z,3.30
2022-11-25T23:18:16.956Z,3.30
2022-11-25T23:20:52.172Z,3.25
2022-11-25T23:23:28.415Z,3.42
2022-11-25T23:26:01.392Z,3.60
2022-11-25T23:28:34.239Z,3.60
2022-11-25T23:31:07.775Z,3.63
2022-11-25T23:33:45.261Z,3.55
2022-11-25T23:36:23.012Z,3.00
2022-11-25T23:38:59.539Z,3.72
2022-11-25T23:41:34.944Z,4.00
2022-11-25T23:44:14.685Z,4.05
2022-11-25T23:46:47.526Z,3.20
2022-11-25T23:49:24.051Z,2.88
2022-11-25T23:52:02.137Z,2.85
2022-11-25T23:54:43.012Z,3.25
2022-11-25T23:57:16.766Z,3.15
2022-11-25T23:59:50.035Z,3.22
